createdAt,value
2018-12-27T00:00:30.854Z,18.57
2018-12-27T00:02:07.314Z,18.07
2018-12-27T00:03:44.015Z,19.23
2018-12-27T00:05:20.408Z,19.73
2018-12-27T00:06:57.031Z,18.77
2018-12-27T00:08:33.559Z,18.80
2018-12-27T00:10:10.260Z,18.33
2018-12-27T00:11:46.971Z,20.30
2018-12-27T00:13:23.799Z,20.00
2018-12-27T00:15:00.609Z,19.37
2018-12-27T00:16:37.246Z,20.00
2018-12-27T00:18:13.902Z,20.90
2018-12-27T00:19:50.587Z,18.77
2018-12-27T00:21:27.043Z,18.20
2018-12-27T00:23:03.898Z,19.97
2018-12-27T00:24:40.623Z,18.83
2018-12-27T00:26:17.216Z,18.70
2018-12-27T00:27:53.995Z,18.90
2018-12-27T00:29:30.692Z,18.63
2018-12-27T00:31:07.430Z,18.30
2018-12-27T00:32:45.675Z,17.97
2018-12-27T00:34:22.389Z,19.33
2018-12-27T00:36:00.076Z,20.27
2018-12-27T00:37:36.835Z,18.23
2018-12-27T00:39:13.365Z,16.83
2018-12-27T00:40:50.049Z,18.47
2018-12-27T00:42:26.550Z,17.87
2018-12-27T00:44:03.277Z,17.37
2018-12-27T00:45:39.860Z,18.27
2018-12-27T00:47:16.478Z,18.20
2018-12-27T00:48:53.088Z,18.00
2018-12-27T00:50:31.139Z,17.70
2018-12-27T00:52:07.622Z,19.17
2018-12-27T00:53:44.092Z,18.17
2018-12-27T00:55:20.522Z,19.07
2018-12-27T00:56:57.467Z,18.00
2018-12-27T00:58:33.915Z,17.13
2018-12-27T01:00:10.452Z,15.40
2018-12-27T01:01:47.171Z,16.10
2018-12-27T01:03:23.655Z,16.70
2018-12-27T01:05:00.352Z,17.57
2018-12-27T01:06:36.968Z,17.07
2018-12-27T01:08:13.517Z,17.57
2018-12-27T01:09:50.022Z,16.23
2018-12-27T01:11:26.747Z,16.47
2018-12-27T01:13:03.397Z,17.03
2018-12-27T01:14:40.158Z,16.10
2018-12-27T01:16:16.798Z,16.60
2018-12-27T01:17:53.336Z,16.03
2018-12-27T01:19:30.135Z,16.67
2018-12-27T01:21:07.640Z,16.40
2018-12-27T01:22:44.388Z,16.63
2018-12-27T01:24:21.171Z,16.70
2018-12-27T01:25:57.709Z,16.13
2018-12-27T01:27:34.543Z,16.30
2018-12-27T01:29:11.518Z,15.57
2018-12-27T01:30:48.673Z,16.43
2018-12-27T01:32:25.239Z,15.53
2018-12-27T01:34:01.899Z,14.83
2018-12-27T01:35:38.404Z,17.23
2018-12-27T01:37:15.522Z,15.97
2018-12-27T01:38:52.409Z,15.13
2018-12-27T01:40:29.162Z,15.70
2018-12-27T01:42:05.851Z,14.63
2018-12-27T01:43:42.431Z,15.20
2018-12-27T01:45:19.159Z,15.50
2018-12-27T01:46:56.033Z,16.23
2018-12-27T01:48:32.674Z,14.73
2018-12-27T01:50:09.306Z,16.13
2018-12-27T01:51:46.045Z,16.17
2018-12-27T01:53:22.738Z,15.03
2018-12-27T01:54:59.365Z,15.73
2018-12-27T01:56:35.943Z,16.63
2018-12-27T01:58:12.567Z,14.80
2018-12-27T01:59:49.172Z,17.53
2018-12-27T02:01:25.676Z,15.53
2018-12-27T02:03:02.320Z,14.60
2018-12-27T02:04:39.051Z,15.73
2018-12-27T02:06:15.563Z,15.70
2018-12-27T02:07:52.108Z,15.23
2018-12-27T02:09:28.669Z,15.23
2018-12-27T02:11:05.314Z,13.67
2018-12-27T02:12:41.926Z,15.70
2018-12-27T02:14:18.214Z,15.13
2018-12-27T02:15:54.767Z,16.43
2018-12-27T02:17:31.286Z,17.77
2018-12-27T02:19:07.845Z,18.17
2018-12-27T02:20:44.071Z,17.83
2018-12-27T02:22:20.247Z,14.10
2018-12-27T02:23:56.431Z,14.77
2018-12-27T02:25:32.827Z,15.00
2018-12-27T02:27:09.075Z,15.37
2018-12-27T02:28:45.291Z,15.40
2018-12-27T02:30:21.575Z,15.97
2018-12-27T02:31:57.914Z,14.30
2018-12-27T02:33:35.563Z,14.83
2018-12-27T02:35:12.069Z,16.13
2018-12-27T02:36:48.288Z,15.63
2018-12-27T02:38:24.499Z,15.07
2018-12-27T02:40:00.702Z,15.07
2018-12-27T02:41:38.743Z,14.87
2018-12-27T02:43:15.034Z,15.23
2018-12-27T02:44:51.251Z,14.40
2018-12-27T02:46:27.468Z,14.70
2018-12-27T02:48:03.655Z,15.17
2018-12-27T02:49:39.973Z,14.83
2018-12-27T02:51:16.290Z,14.43
2018-12-27T02:52:52.504Z,14.97
2018-12-27T02:54:28.706Z,15.30
2018-12-27T02:56:04.915Z,14.70
2018-12-27T02:57:41.099Z,15.37
2018-12-27T02:59:17.394Z,16.03
2018-12-27T03:00:53.579Z,15.60
2018-12-27T03:02:29.883Z,14.70
2018-12-27T03:04:06.149Z,15.80
2018-12-27T03:05:42.342Z,15.10
2018-12-27T03:07:18.583Z,15.10
2018-12-27T03:08:54.841Z,14.40
2018-12-27T03:10:31.227Z,14.30
2018-12-27T03:12:07.634Z,13.97
2018-12-27T03:13:43.872Z,13.67
2018-12-27T03:15:20.074Z,13.27
2018-12-27T03:16:56.318Z,13.70
2018-12-27T03:18:32.640Z,12.93
2018-12-27T03:20:08.932Z,12.20
2018-12-27T03:21:45.216Z,13.03
2018-12-27T03:23:21.534Z,13.30
2018-12-27T03:24:57.819Z,13.47
2018-12-27T03:26:34.325Z,12.93
2018-12-27T03:28:10.825Z,13.77
2018-12-27T03:29:47.307Z,12.17
2018-12-27T03:31:23.684Z,13.73
2018-12-27T03:32:59.859Z,14.30
2018-12-27T03:34:36.063Z,13.30
2018-12-27T03:36:12.336Z,13.47
2018-12-27T03:37:48.517Z,13.93
2018-12-27T03:39:24.701Z,14.60
2018-12-27T03:41:01.068Z,14.93
2018-12-27T03:42:37.280Z,14.80
2018-12-27T03:44:13.457Z,14.60
2018-12-27T03:45:49.679Z,13.63
2018-12-27T03:47:25.918Z,14.20
2018-12-27T03:49:02.114Z,13.57
2018-12-27T03:50:38.369Z,13.50
2018-12-27T03:52:14.613Z,14.30
2018-12-27T03:53:50.805Z,14.23
2018-12-27T03:55:27.008Z,15.17
2018-12-27T03:57:03.224Z,15.33
2018-12-27T03:58:39.487Z,13.83
2018-12-27T04:00:15.675Z,13.77
2018-12-27T04:01:51.928Z,13.57
2018-12-27T04:03:28.138Z,15.07
2018-12-27T04:05:04.342Z,14.97
2018-12-27T04:06:40.574Z,14.83
2018-12-27T04:08:16.788Z,13.50
2018-12-27T04:09:53.110Z,13.57
2018-12-27T04:11:29.342Z,14.63
2018-12-27T04:13:05.566Z,14.37
2018-12-27T04:14:41.754Z,14.80
2018-12-27T04:16:17.799Z,14.23
2018-12-27T04:17:53.829Z,14.30
2018-12-27T04:19:29.930Z,13.80
2018-12-27T04:21:06.084Z,13.77
2018-12-27T04:22:42.213Z,13.83
2018-12-27T04:24:20.207Z,13.43
2018-12-27T04:25:57.680Z,13.40
2018-12-27T04:27:33.823Z,13.63
2018-12-27T04:29:10.009Z,12.83
2018-12-27T04:30:46.732Z,14.30
2018-12-27T04:32:23.941Z,13.13
2018-12-27T04:34:00.425Z,13.43
2018-12-27T04:35:37.553Z,13.30
2018-12-27T04:37:13.799Z,14.63
2018-12-27T04:38:49.895Z,14.23
2018-12-27T04:40:26.098Z,14.60
2018-12-27T04:42:02.385Z,15.03
2018-12-27T04:43:38.620Z,13.77
2018-12-27T04:45:14.678Z,14.63
2018-12-27T04:46:50.831Z,14.07
2018-12-27T04:48:26.964Z,12.97
2018-12-27T04:50:03.065Z,13.20
2018-12-27T04:51:39.102Z,13.20
2018-12-27T04:53:15.186Z,12.87
2018-12-27T04:54:51.254Z,14.77
2018-12-27T04:56:27.315Z,12.40
2018-12-27T04:58:03.482Z,12.77
2018-12-27T04:59:39.537Z,12.80
2018-12-27T05:01:15.581Z,12.47
2018-12-27T05:02:51.679Z,12.87
2018-12-27T05:04:27.793Z,12.93
2018-12-27T05:06:04.012Z,12.87
2018-12-27T05:07:40.193Z,12.63
2018-12-27T05:09:16.383Z,12.47
2018-12-27T05:10:52.510Z,11.90
2018-12-27T05:12:28.591Z,13.90
2018-12-27T05:14:04.777Z,13.70
2018-12-27T05:15:40.973Z,13.00
2018-12-27T05:17:17.058Z,13.33
2018-12-27T05:18:53.257Z,11.93
2018-12-27T05:20:29.446Z,12.63
2018-12-27T05:22:05.492Z,12.10
2018-12-27T05:23:41.572Z,12.43
2018-12-27T05:25:17.689Z,12.77
2018-12-27T05:26:53.918Z,12.80
2018-12-27T05:28:30.024Z,12.63
2018-12-27T05:30:06.386Z,12.67
2018-12-27T05:31:42.653Z,12.43
2018-12-27T05:33:18.731Z,11.57
2018-12-27T05:34:54.966Z,12.73
2018-12-27T05:36:31.034Z,13.07
2018-12-27T05:38:07.101Z,13.73
2018-12-27T05:39:43.231Z,12.77
2018-12-27T05:41:19.403Z,12.10
2018-12-27T05:42:55.552Z,12.47
2018-12-27T05:44:31.667Z,12.47
2018-12-27T05:46:07.694Z,11.70
2018-12-27T05:47:43.766Z,12.67
2018-12-27T05:49:19.881Z,12.30
2018-12-27T05:50:56.029Z,11.67
2018-12-27T05:52:32.128Z,11.83
2018-12-27T05:54:08.182Z,12.70
2018-12-27T05:55:44.220Z,12.97
2018-12-27T05:57:20.337Z,12.37
2018-12-27T05:58:56.389Z,10.87
2018-12-27T06:00:32.434Z,12.40
2018-12-27T06:02:08.486Z,13.00
2018-12-27T06:03:44.563Z,12.50
2018-12-27T06:05:20.601Z,14.20
2018-12-27T06:06:56.651Z,11.87
2018-12-27T06:08:32.910Z,12.60
2018-12-27T06:10:09.104Z,12.13
2018-12-27T06:11:45.296Z,12.60
2018-12-27T06:13:21.446Z,19.13
2018-12-27T06:14:57.697Z,10.97
2018-12-27T06:16:33.821Z,12.33
2018-12-27T06:18:09.903Z,11.43
2018-12-27T06:19:46.045Z,11.00
2018-12-27T06:21:22.221Z,11.30
2018-12-27T06:22:58.310Z,12.10
2018-12-27T06:24:34.446Z,13.40
2018-12-27T06:26:10.489Z,11.30
2018-12-27T06:27:46.532Z,11.23
2018-12-27T06:29:22.671Z,11.27
2018-12-27T06:30:58.710Z,12.87
2018-12-27T06:32:34.838Z,11.67
2018-12-27T06:34:10.894Z,13.30
2018-12-27T06:35:47.065Z,11.00
2018-12-27T06:37:23.210Z,12.00
2018-12-27T06:38:59.483Z,11.70
2018-12-27T06:40:35.628Z,10.13
2018-12-27T06:42:11.870Z,12.10
2018-12-27T06:43:48.081Z,12.50
2018-12-27T06:45:24.141Z,11.30
2018-12-27T06:47:00.267Z,11.60
2018-12-27T06:48:36.344Z,12.03
2018-12-27T06:50:12.389Z,11.10
2018-12-27T06:51:48.453Z,10.77
2018-12-27T06:53:24.634Z,11.20
2018-12-27T06:55:00.686Z,11.77
2018-12-27T06:56:36.758Z,11.63
2018-12-27T06:58:12.796Z,11.40
2018-12-27T06:59:48.870Z,11.30
2018-12-27T07:01:24.915Z,11.83
2018-12-27T07:03:01.034Z,10.93
2018-12-27T07:04:37.168Z,11.90
2018-12-27T07:06:13.295Z,10.37
2018-12-27T07:07:49.377Z,11.07
2018-12-27T07:09:25.527Z,10.90
2018-12-27T07:11:01.582Z,11.33
2018-12-27T07:12:37.753Z,11.43
2018-12-27T07:14:13.939Z,11.23
2018-12-27T07:15:50.010Z,11.70
2018-12-27T07:17:26.131Z,11.37
2018-12-27T07:19:08.871Z,11.43
2018-12-27T07:20:45.042Z,10.80
2018-12-27T07:22:21.095Z,9.83
2018-12-27T07:23:57.160Z,10.07
2018-12-27T07:25:33.279Z,9.90
2018-12-27T07:27:09.406Z,11.30
2018-12-27T07:28:46.446Z,11.50
2018-12-27T07:30:22.506Z,11.07
2018-12-27T07:31:58.571Z,10.33
2018-12-27T07:33:34.629Z,9.97
2018-12-27T07:35:10.669Z,10.63
2018-12-27T07:36:46.713Z,10.43
2018-12-27T07:38:22.844Z,10.90
2018-12-27T07:39:58.992Z,9.57
2018-12-27T07:41:35.049Z,9.60
2018-12-27T07:43:11.245Z,11.07
2018-12-27T07:44:47.326Z,10.70
2018-12-27T07:46:23.442Z,10.17
2018-12-27T07:47:59.502Z,11.10
2018-12-27T07:49:35.597Z,10.00
2018-12-27T07:51:11.725Z,10.17
2018-12-27T07:52:48.682Z,10.17
2018-12-27T07:54:25.022Z,9.60
2018-12-27T07:56:01.051Z,10.10
2018-12-27T07:57:38.014Z,10.13
2018-12-27T07:59:14.094Z,9.47
2018-12-27T08:00:50.218Z,9.73
2018-12-27T08:02:26.264Z,11.37
2018-12-27T08:04:02.380Z,10.83
2018-12-27T08:05:38.413Z,9.37
2018-12-27T08:07:14.537Z,9.83
2018-12-27T08:08:50.613Z,11.40
2018-12-27T08:10:26.686Z,10.90
2018-12-27T08:12:02.783Z,11.33
2018-12-27T08:13:38.925Z,11.53
2018-12-27T08:15:15.059Z,10.43
2018-12-27T08:16:51.292Z,9.37
2018-12-27T08:18:27.476Z,10.17
2018-12-27T08:20:03.893Z,10.27
2018-12-27T08:21:40.179Z,10.57
2018-12-27T08:23:16.257Z,10.23
2018-12-27T08:24:52.416Z,9.70
2018-12-27T08:26:28.678Z,9.30
2018-12-27T08:28:04.807Z,9.70
2018-12-27T08:29:40.973Z,9.87
2018-12-27T08:31:16.988Z,9.57
2018-12-27T08:32:53.314Z,10.60
2018-12-27T08:34:29.554Z,10.67
2018-12-27T08:36:05.763Z,10.57
2018-12-27T08:37:41.893Z,10.20
2018-12-27T08:39:18.074Z,8.67
2018-12-27T08:40:54.294Z,8.60
2018-12-27T08:42:30.509Z,9.67
2018-12-27T08:44:06.609Z,9.67
2018-12-27T08:45:42.685Z,7.97
2018-12-27T08:47:18.798Z,7.37
2018-12-27T08:48:54.895Z,8.53
2018-12-27T08:50:31.220Z,6.10
2018-12-27T08:52:07.337Z,5.87
2018-12-27T08:53:43.537Z,8.23
2018-12-27T08:55:19.558Z,7.87
2018-12-27T08:56:55.718Z,8.27
2018-12-27T08:58:31.743Z,6.47
2018-12-27T09:00:08.280Z,6.47
2018-12-27T09:01:44.383Z,5.70
2018-12-27T09:03:20.462Z,6.17
2018-12-27T09:04:56.578Z,5.70
2018-12-27T09:06:32.672Z,6.10
2018-12-27T09:08:08.805Z,6.20
2018-12-27T09:09:44.917Z,5.93
2018-12-27T09:11:21.013Z,5.80
2018-12-27T09:12:57.146Z,5.80
2018-12-27T09:14:34.341Z,5.30
2018-12-27T09:16:11.427Z,6.03
2018-12-27T09:17:47.519Z,6.10
2018-12-27T09:19:23.616Z,6.50
2018-12-27T09:20:59.622Z,6.07
2018-12-27T09:22:35.854Z,5.63
2018-12-27T09:24:12.035Z,6.27
2018-12-27T09:25:48.189Z,6.23
2018-12-27T09:27:24.226Z,5.70
2018-12-27T09:29:00.374Z,5.90
2018-12-27T09:30:36.488Z,6.00
2018-12-27T09:32:12.503Z,5.83
2018-12-27T09:33:48.636Z,5.57
2018-12-27T09:35:26.503Z,6.00
2018-12-27T09:37:02.538Z,5.47
2018-12-27T09:38:38.594Z,6.20
2018-12-27T09:40:14.614Z,5.43
2018-12-27T09:41:50.653Z,5.80
2018-12-27T09:43:26.682Z,6.00
2018-12-27T09:45:02.854Z,6.57
2018-12-27T09:46:39.030Z,5.93
2018-12-27T09:48:15.107Z,6.23
2018-12-27T09:49:51.205Z,6.03
2018-12-27T09:51:27.321Z,5.43
2018-12-27T09:53:03.519Z,5.93
2018-12-27T09:54:39.603Z,5.77
2018-12-27T09:56:15.736Z,5.53
2018-12-27T09:57:51.759Z,5.63
2018-12-27T09:59:27.841Z,6.03
2018-12-27T10:01:04.034Z,6.33
2018-12-27T10:02:40.211Z,5.77
2018-12-27T10:04:16.161Z,6.03
2018-12-27T10:05:52.201Z,5.70
2018-12-27T10:07:28.214Z,6.10
2018-12-27T10:09:05.270Z,5.60
2018-12-27T10:10:41.338Z,5.30
2018-12-27T10:12:17.493Z,5.60
2018-12-27T10:13:53.586Z,5.37
2018-12-27T10:15:30.158Z,5.50
2018-12-27T10:17:06.316Z,4.97
2018-12-27T10:18:42.405Z,5.03
2018-12-27T10:20:18.495Z,5.57
2018-12-27T10:21:54.565Z,4.90
2018-12-27T10:23:30.598Z,5.40
2018-12-27T10:25:06.917Z,5.90
2018-12-27T10:26:43.028Z,4.87
2018-12-27T10:28:19.089Z,4.33
2018-12-27T10:29:55.330Z,4.90
2018-12-27T10:31:34.373Z,5.47
2018-12-27T10:33:10.698Z,5.47
2018-12-27T10:34:46.749Z,5.93
2018-12-27T10:36:22.936Z,5.40
2018-12-27T10:37:59.192Z,5.47
2018-12-27T10:39:35.257Z,4.97
2018-12-27T10:41:11.324Z,5.60
2018-12-27T10:42:47.430Z,6.00
2018-12-27T10:44:23.550Z,6.03
2018-12-27T10:45:59.558Z,6.17
2018-12-27T10:47:35.632Z,5.50
2018-12-27T10:49:11.738Z,6.23
2018-12-27T10:50:48.886Z,5.23
2018-12-27T10:52:24.934Z,5.03
2018-12-27T10:54:01.059Z,5.60
2018-12-27T10:55:37.167Z,5.73
2018-12-27T10:57:13.213Z,5.27
2018-12-27T10:58:49.214Z,5.73
2018-12-27T11:00:25.233Z,5.47
2018-12-27T11:02:01.348Z,5.57
2018-12-27T11:03:37.526Z,5.13
2018-12-27T11:05:13.666Z,6.10
2018-12-27T11:06:49.893Z,5.87
2018-12-27T11:08:25.902Z,6.03
2018-12-27T11:10:01.969Z,5.87
2018-12-27T11:11:38.131Z,5.87
2018-12-27T11:13:14.197Z,5.90
2018-12-27T11:14:50.223Z,6.03
2018-12-27T11:16:26.402Z,5.53
2018-12-27T11:18:02.490Z,6.07
2018-12-27T11:19:38.627Z,5.20
2018-12-27T11:21:14.754Z,4.83
2018-12-27T11:22:50.814Z,5.43
2018-12-27T11:24:26.838Z,5.60
2018-12-27T11:26:02.974Z,6.03
2018-12-27T11:27:39.268Z,5.90
2018-12-27T11:29:15.381Z,5.90
2018-12-27T11:30:51.504Z,6.50
2018-12-27T11:32:27.623Z,6.67
2018-12-27T11:34:03.911Z,6.83
2018-12-27T11:35:39.991Z,6.33
2018-12-27T11:37:16.209Z,6.17
2018-12-27T11:38:52.234Z,6.03
2018-12-27T11:40:28.279Z,6.07
2018-12-27T11:42:04.349Z,6.23
2018-12-27T11:43:40.571Z,6.60
2018-12-27T11:45:16.601Z,6.33
2018-12-27T11:46:52.685Z,6.27
2018-12-27T11:48:28.755Z,6.50
2018-12-27T11:50:05.277Z,6.20
2018-12-27T11:51:41.390Z,6.37
2018-12-27T11:53:17.633Z,11.87
2018-12-27T11:54:53.650Z,8.37
2018-12-27T11:56:29.836Z,5.60
2018-12-27T11:58:06.032Z,6.67
2018-12-27T11:59:42.178Z,6.80
2018-12-27T12:01:18.317Z,6.37
2018-12-27T12:02:54.410Z,6.30
2018-12-27T12:04:30.574Z,6.27
2018-12-27T12:06:06.598Z,6.90
2018-12-27T12:07:45.324Z,7.03
2018-12-27T12:09:21.334Z,7.57
2018-12-27T12:10:57.546Z,7.00
2018-12-27T12:12:34.027Z,7.30
2018-12-27T12:14:10.687Z,7.17
2018-12-27T12:15:47.329Z,6.93
2018-12-27T12:17:23.350Z,7.07
2018-12-27T12:18:59.495Z,7.63
2018-12-27T12:20:35.802Z,7.27
2018-12-27T12:22:11.873Z,8.20
2018-12-27T12:23:48.037Z,7.70
2018-12-27T12:25:24.142Z,8.20
2018-12-27T12:27:00.424Z,7.83
2018-12-27T12:28:36.557Z,6.93
2018-12-27T12:30:12.653Z,7.13
2018-12-27T12:31:48.823Z,6.97
2018-12-27T12:33:25.001Z,7.27
2018-12-27T12:35:01.067Z,7.57
2018-12-27T12:36:37.232Z,8.47
2018-12-27T12:38:13.440Z,8.40
2018-12-27T12:39:49.537Z,8.23
2018-12-27T12:41:25.630Z,9.00
2018-12-27T12:43:01.756Z,8.33
2018-12-27T12:44:37.859Z,7.87
2018-12-27T12:46:13.985Z,8.20
2018-12-27T12:47:49.982Z,8.83
2018-12-27T12:49:26.064Z,7.13
2018-12-27T12:51:02.160Z,7.63
2018-12-27T12:52:39.269Z,7.60
2018-12-27T12:54:15.489Z,7.67
2018-12-27T12:55:51.573Z,8.10
2018-12-27T12:57:27.678Z,8.63
2018-12-27T12:59:03.759Z,8.10
2018-12-27T13:00:39.873Z,8.13
2018-12-27T13:02:16.042Z,8.10
2018-12-27T13:03:52.158Z,7.40
2018-12-27T13:05:28.238Z,7.57
2018-12-27T13:07:04.633Z,8.83
2018-12-27T13:08:40.733Z,8.07
2018-12-27T13:10:16.829Z,7.93
2018-12-27T13:11:52.844Z,7.47
2018-12-27T13:13:28.904Z,7.33
2018-12-27T13:15:05.269Z,8.80
2018-12-27T13:16:41.357Z,8.90
2018-12-27T13:18:17.921Z,8.33
2018-12-27T13:19:53.967Z,8.43
2018-12-27T13:21:30.100Z,8.57
2018-12-27T13:23:06.221Z,8.53
2018-12-27T13:24:42.367Z,8.07
2018-12-27T13:26:19.384Z,7.90
2018-12-27T13:27:55.420Z,8.27
2018-12-27T13:29:31.579Z,8.33
2018-12-27T13:31:07.611Z,8.30
2018-12-27T13:32:43.671Z,8.47
2018-12-27T13:34:19.882Z,8.40
2018-12-27T13:35:56.038Z,8.37
2018-12-27T13:37:32.109Z,8.13
2018-12-27T13:39:08.801Z,8.63
2018-12-27T13:40:44.799Z,8.20
2018-12-27T13:42:20.969Z,9.07
2018-12-27T13:43:57.106Z,8.47
2018-12-27T13:45:33.211Z,8.20
2018-12-27T13:47:09.295Z,8.33
2018-12-27T13:48:45.400Z,8.07
2018-12-27T13:50:21.510Z,8.70
2018-12-27T13:51:57.602Z,8.53
2018-12-27T13:53:33.681Z,8.27
2018-12-27T13:55:09.893Z,8.60
2018-12-27T13:56:46.002Z,8.77
2018-12-27T13:58:22.006Z,9.23
2018-12-27T13:59:58.132Z,8.90
2018-12-27T14:01:34.147Z,9.13
2018-12-27T14:03:10.226Z,9.23
2018-12-27T14:04:46.349Z,9.93
2018-12-27T14:06:22.398Z,8.63
2018-12-27T14:07:58.420Z,9.77
2018-12-27T14:09:34.561Z,9.50
2018-12-27T14:11:10.789Z,10.10
2018-12-27T14:12:46.946Z,9.43
2018-12-27T14:14:23.009Z,10.13
2018-12-27T14:15:59.216Z,9.80
2018-12-27T14:17:35.327Z,9.63
2018-12-27T14:19:11.353Z,11.47
2018-12-27T14:20:47.512Z,10.83
2018-12-27T14:22:23.578Z,11.03
2018-12-27T14:23:59.614Z,10.97
2018-12-27T14:25:35.723Z,10.60
2018-12-27T14:27:11.789Z,11.73
2018-12-27T14:28:49.014Z,10.60
2018-12-27T14:30:25.226Z,10.53
2018-12-27T14:32:01.241Z,10.00
2018-12-27T14:33:37.273Z,10.57
2018-12-27T14:35:13.404Z,10.60
2018-12-27T14:36:49.598Z,11.37
2018-12-27T14:38:25.705Z,10.07
2018-12-27T14:40:01.952Z,11.57
2018-12-27T14:41:38.123Z,10.80
2018-12-27T14:43:14.149Z,10.73
2018-12-27T14:44:50.219Z,11.63
2018-12-27T14:46:26.248Z,11.40
2018-12-27T14:48:02.312Z,11.33
2018-12-27T14:49:38.498Z,11.50
2018-12-27T14:51:14.681Z,11.63
2018-12-27T14:52:50.752Z,11.13
2018-12-27T14:54:26.802Z,11.43
2018-12-27T14:56:02.894Z,11.07
2018-12-27T14:57:38.989Z,12.03
2018-12-27T14:59:15.041Z,11.00
2018-12-27T15:00:51.224Z,11.73
2018-12-27T15:02:27.329Z,11.20
2018-12-27T15:04:03.463Z,11.13
2018-12-27T15:05:39.584Z,11.03
2018-12-27T15:07:15.878Z,11.63
2018-12-27T15:08:51.938Z,11.13
2018-12-27T15:10:28.106Z,11.63
2018-12-27T15:12:04.122Z,11.53
2018-12-27T15:13:40.154Z,12.37
2018-12-27T15:15:16.371Z,11.40
2018-12-27T15:16:52.394Z,11.93
2018-12-27T15:18:28.404Z,12.33
2018-12-27T15:20:04.896Z,11.53
2018-12-27T15:21:40.923Z,11.13
2018-12-27T15:23:16.941Z,11.77
2018-12-27T15:24:54.133Z,11.30
2018-12-27T15:26:30.358Z,12.53
2018-12-27T15:28:06.370Z,11.80
2018-12-27T15:29:42.436Z,12.80
2018-12-27T15:31:18.556Z,11.93
2018-12-27T15:32:54.676Z,11.33
2018-12-27T15:34:30.887Z,12.87
2018-12-27T15:36:06.978Z,11.63
2018-12-27T15:37:43.022Z,12.17
2018-12-27T15:39:18.993Z,11.80
2018-12-27T15:40:55.062Z,11.33
2018-12-27T15:42:31.114Z,11.73
2018-12-27T15:44:07.294Z,11.80
2018-12-27T15:45:43.343Z,11.40
2018-12-27T15:47:19.398Z,11.73
2018-12-27T15:48:55.425Z,11.97
2018-12-27T15:50:31.628Z,11.73
2018-12-27T15:52:07.700Z,11.57
2018-12-27T15:53:43.729Z,11.77
2018-12-27T15:55:19.761Z,11.77
2018-12-27T15:56:55.827Z,11.83
2018-12-27T15:58:31.874Z,12.13
2018-12-27T16:00:08.587Z,11.40
2018-12-27T16:01:44.661Z,11.13
2018-12-27T16:03:20.765Z,12.70
2018-12-27T16:04:56.862Z,11.20
2018-12-27T16:06:32.918Z,11.60
2018-12-27T16:08:08.936Z,11.70
2018-12-27T16:09:44.981Z,12.27
2018-12-27T16:11:21.139Z,12.07
2018-12-27T16:12:57.253Z,13.50
2018-12-27T16:14:33.375Z,12.73
2018-12-27T16:16:09.431Z,12.60
2018-12-27T16:17:45.589Z,12.13
2018-12-27T16:19:21.725Z,13.57
2018-12-27T16:20:57.814Z,12.77
2018-12-27T16:22:33.931Z,13.30
2018-12-27T16:24:10.043Z,13.20
2018-12-27T16:25:46.095Z,11.87
2018-12-27T16:27:22.201Z,13.53
2018-12-27T16:28:58.251Z,13.93
2018-12-27T16:30:34.482Z,13.07
2018-12-27T16:32:10.623Z,12.87
2018-12-27T16:33:46.733Z,13.83
2018-12-27T16:35:22.994Z,13.77
2018-12-27T16:36:59.154Z,13.43
2018-12-27T16:38:35.183Z,12.67
2018-12-27T16:40:11.296Z,13.93
2018-12-27T16:41:47.515Z,13.80
2018-12-27T16:43:23.562Z,12.57
2018-12-27T16:44:59.666Z,12.67
2018-12-27T16:46:35.864Z,10.83
2018-12-27T16:48:11.901Z,11.57
2018-12-27T16:49:47.952Z,11.50
2018-12-27T16:51:24.031Z,12.37
2018-12-27T16:53:00.242Z,11.27
2018-12-27T16:54:36.349Z,12.37
2018-12-27T16:56:12.407Z,13.03
2018-12-27T16:57:48.640Z,11.30
2018-12-27T16:59:25.016Z,11.47
2018-12-27T17:01:01.143Z,11.73
2018-12-27T17:02:37.322Z,12.30
2018-12-27T17:04:13.370Z,12.10
2018-12-27T17:05:49.390Z,13.67
2018-12-27T17:07:25.450Z,15.40
2018-12-27T17:09:01.597Z,12.53
2018-12-27T17:10:39.012Z,13.17
2018-12-27T17:12:15.114Z,12.90
2018-12-27T17:13:51.150Z,12.53
2018-12-27T17:15:27.298Z,13.23
2018-12-27T17:17:03.471Z,13.67
2018-12-27T17:18:39.507Z,13.23
2018-12-27T17:20:15.615Z,12.83
2018-12-27T17:21:51.756Z,12.47
2018-12-27T17:23:27.936Z,12.70
2018-12-27T17:25:04.201Z,13.43
2018-12-27T17:26:40.397Z,15.90
2018-12-27T17:28:16.514Z,16.27
2018-12-27T17:29:52.634Z,15.50
2018-12-27T17:31:28.756Z,16.03
2018-12-27T17:33:04.930Z,17.67
2018-12-27T17:34:41.034Z,15.63
2018-12-27T17:36:17.319Z,14.50
2018-12-27T17:37:53.508Z,13.73
2018-12-27T17:39:29.519Z,12.27
2018-12-27T17:41:05.657Z,11.80
2018-12-27T17:42:41.787Z,13.43
2018-12-27T17:44:18.066Z,16.03
2018-12-27T17:45:54.103Z,14.17
2018-12-27T17:47:30.164Z,13.20
2018-12-27T17:49:06.203Z,15.40
2018-12-27T17:50:42.409Z,15.80
2018-12-27T17:52:18.642Z,16.63
2018-12-27T17:53:54.674Z,15.57
2018-12-27T17:55:30.720Z,15.87
2018-12-27T17:57:06.874Z,15.87
2018-12-27T17:58:42.969Z,15.70
2018-12-27T18:00:19.225Z,17.73
2018-12-27T18:01:55.254Z,16.70
2018-12-27T18:03:31.326Z,15.97
2018-12-27T18:05:07.445Z,15.90
2018-12-27T18:06:43.558Z,16.43
2018-12-27T18:08:19.605Z,13.70
2018-12-27T18:09:55.710Z,13.23
2018-12-27T18:11:32.654Z,12.10
2018-12-27T18:13:08.884Z,12.70
2018-12-27T18:14:44.932Z,12.70
2018-12-27T18:16:21.049Z,11.93
2018-12-27T18:17:57.120Z,13.23
2018-12-27T18:19:33.146Z,12.40
2018-12-27T18:21:09.252Z,12.03
2018-12-27T18:22:45.312Z,15.10
2018-12-27T18:24:21.449Z,15.13
2018-12-27T18:25:57.502Z,18.10
2018-12-27T18:27:33.550Z,15.37
2018-12-27T18:29:09.693Z,12.60
2018-12-27T18:30:45.735Z,13.10
2018-12-27T18:32:21.825Z,13.87
2018-12-27T18:33:57.905Z,13.40
2018-12-27T18:35:34.008Z,13.40
2018-12-27T18:37:10.165Z,14.47
2018-12-27T18:38:46.276Z,15.10
2018-12-27T18:40:22.381Z,14.43
2018-12-27T18:41:58.480Z,14.47
2018-12-27T18:43:34.527Z,15.17
2018-12-27T18:45:10.625Z,14.47
2018-12-27T18:46:46.686Z,14.17
2018-12-27T18:48:22.742Z,15.17
2018-12-27T18:49:58.766Z,13.37
2018-12-27T18:51:34.906Z,13.47
2018-12-27T18:53:11.059Z,14.57
2018-12-27T18:54:47.105Z,14.57
2018-12-27T18:56:23.202Z,13.80
2018-12-27T18:57:59.306Z,14.40
2018-12-27T18:59:35.356Z,13.67
2018-12-27T19:01:11.557Z,13.77
2018-12-27T19:02:47.681Z,14.13
2018-12-27T19:04:23.752Z,14.63
2018-12-27T19:05:59.945Z,14.97
2018-12-27T19:07:35.962Z,14.80
2018-12-27T19:09:12.165Z,16.03
2018-12-27T19:11:24.743Z,15.47
2018-12-27T19:13:11.746Z,15.20
2018-12-27T19:14:48.410Z,14.90
2018-12-27T19:16:24.446Z,15.13
2018-12-27T19:18:13.750Z,14.60
2018-12-27T19:19:49.962Z,13.97
2018-12-27T19:21:41.140Z,13.43
2018-12-27T19:23:20.682Z,13.23
2018-12-27T19:24:56.806Z,13.40
2018-12-27T19:26:32.864Z,14.27
2018-12-27T19:28:09.024Z,14.73
2018-12-27T19:29:45.091Z,15.43
2018-12-27T19:31:21.290Z,14.23
2018-12-27T19:32:57.432Z,16.80
2018-12-27T19:34:33.530Z,14.73
2018-12-27T19:36:09.653Z,14.87
2018-12-27T19:37:51.860Z,14.37
2018-12-27T19:39:23.630Z,13.93
2018-12-27T19:40:59.810Z,14.23
2018-12-27T19:42:35.866Z,14.77
2018-12-27T19:44:12.077Z,13.97
2018-12-27T19:45:48.129Z,14.13
2018-12-27T19:47:24.262Z,13.93
2018-12-27T19:49:00.561Z,14.83
2018-12-27T19:50:36.619Z,14.83
2018-12-27T19:52:12.757Z,14.37
2018-12-27T19:53:48.967Z,14.80
2018-12-27T19:55:25.090Z,13.97
2018-12-27T19:57:01.338Z,14.13
2018-12-27T19:58:37.426Z,14.77
2018-12-27T20:00:13.772Z,14.57
2018-12-27T20:01:49.984Z,13.83
2018-12-27T20:03:26.258Z,14.40
2018-12-27T20:05:02.337Z,14.90
2018-12-27T20:06:38.650Z,14.13
2018-12-27T20:08:14.773Z,14.33
2018-12-27T20:09:50.992Z,14.20
2018-12-27T20:11:27.256Z,14.80
2018-12-27T20:13:03.327Z,14.53
2018-12-27T20:14:39.545Z,14.63
2018-12-27T20:16:15.677Z,15.90
2018-12-27T20:17:51.908Z,19.83
2018-12-27T20:19:28.142Z,15.33
2018-12-27T20:21:04.335Z,13.60
2018-12-27T20:22:40.545Z,13.17
2018-12-27T20:24:16.629Z,16.13
2018-12-27T20:25:52.714Z,14.50
2018-12-27T20:27:28.835Z,15.10
2018-12-27T20:29:05.025Z,17.73
2018-12-27T20:30:41.219Z,16.03
2018-12-27T20:32:17.417Z,15.53
2018-12-27T20:33:53.510Z,16.93
2018-12-27T20:35:29.633Z,16.17
2018-12-27T20:37:05.894Z,15.53
2018-12-27T20:38:42.301Z,16.37
2018-12-27T20:40:18.515Z,15.87
2018-12-27T20:41:54.636Z,15.60
2018-12-27T20:43:30.911Z,14.77
2018-12-27T20:45:07.112Z,15.53
2018-12-27T20:46:43.241Z,15.37
2018-12-27T20:48:19.422Z,16.03
2018-12-27T20:49:55.446Z,14.60
2018-12-27T20:51:31.630Z,14.13